createdAt,value
2023-03-05T00:01:43.476Z,72.50
2023-03-05T00:04:14.348Z,72.60
2023-03-05T00:06:41.503Z,72.60
2023-03-05T00:09:08.752Z,72.60
2023-03-05T00:11:36.308Z,72.40
2023-03-05T00:14:04.423Z,72.20
2023-03-05T00:16:32.378Z,72.10
2023-03-05T00:19:00.715Z,71.90
2023-03-05T00:21:33.897Z,71.90
2023-03-05T00:24:02.594Z,71.90
2023-03-05T00:26:31.034Z,71.90
2023-03-05T00:28:58.924Z,71.90
2023-03-05T00:31:30.515Z,71.90
2023-03-05T00:34:04.372Z,72.10
2023-03-05T00:36:31.864Z,72.10
2023-03-05T00:38:59.271Z,71.90
2023-03-05T00:41:26.677Z,71.60
2023-03-05T00:43:54.397Z,71.30
2023-03-05T00:46:21.877Z,71.20
2023-03-05T00:48:49.189Z,71.20
2023-03-05T00:51:16.411Z,71.40
2023-03-05T00:53:43.693Z,71.60
2023-03-05T00:56:11.088Z,70.80
2023-03-05T00:58:38.463Z,71.50
2023-03-05T01:01:06.528Z,71.60
2023-03-05T01:03:34.467Z,71.80
2023-03-05T01:06:04.861Z,70.90
2023-03-05T01:08:34.005Z,71.70
2023-03-05T01:11:01.763Z,71.80
2023-03-05T01:13:31.193Z,71.90
2023-03-05T01:18:26.075Z,71.00
2023-03-05T01:20:53.294Z,71.90
2023-03-05T01:23:20.696Z,71.80
2023-03-05T01:25:57.437Z,71.70
2023-03-05T01:28:25.522Z,71.50
2023-03-05T01:30:52.798Z,71.40
2023-03-05T01:33:20.212Z,71.30
2023-03-05T01:35:49.282Z,71.20
2023-03-05T01:38:16.841Z,71.40
2023-03-05T01:40:44.561Z,71.60
2023-03-05T01:43:11.871Z,71.80
2023-03-05T01:45:59.755Z,71.90
2023-03-05T01:48:27.660Z,72.00
2023-03-05T01:50:54.971Z,72.20
2023-03-05T01:53:22.352Z,72.20
2023-03-05T01:55:49.740Z,72.10
2023-03-05T01:58:17.955Z,72.00
2023-03-05T02:00:48.452Z,72.10
2023-03-05T02:03:16.224Z,72.20
2023-03-05T02:05:44.468Z,72.20
2023-03-05T02:08:18.715Z,72.20
2023-03-05T02:10:57.945Z,72.10
2023-03-05T02:13:31.712Z,71.70
2023-03-05T02:16:01.412Z,71.40
2023-03-05T02:18:28.728Z,71.50
2023-03-05T02:20:56.116Z,71.80
2023-03-05T02:23:29.888Z,72.20
2023-03-05T02:25:57.083Z,72.20
2023-03-05T02:28:33.165Z,72.30
2023-03-05T02:31:00.443Z,72.30
2023-03-05T02:33:27.701Z,72.30
2023-03-05T02:35:54.925Z,72.40
2023-03-05T02:38:22.365Z,72.60
2023-03-05T02:40:49.506Z,72.60
2023-03-05T02:43:17.926Z,72.90
2023-03-05T02:45:45.356Z,73.00
2023-03-05T02:48:12.548Z,73.10
2023-03-05T02:50:40.962Z,73.10
2023-03-05T02:53:08.252Z,73.30
2023-03-05T02:55:35.585Z,73.60
2023-03-05T02:58:02.931Z,74.10
2023-03-05T03:00:30.479Z,74.50
2023-03-05T03:02:57.789Z,74.80
2023-03-05T03:05:25.036Z,76.10
2023-03-05T03:07:52.740Z,75.30
2023-03-05T03:10:20.175Z,75.10
2023-03-05T03:12:47.328Z,75.10
2023-03-05T03:15:17.024Z,75.40
2023-03-05T03:17:44.758Z,75.50
2023-03-05T03:20:15.156Z,75.70
2023-03-05T03:22:44.054Z,75.70
2023-03-05T03:25:18.195Z,75.60
2023-03-05T03:27:45.375Z,75.60
2023-03-05T03:30:13.819Z,75.90
2023-03-05T03:32:41.112Z,76.00
2023-03-05T03:35:08.971Z,76.20
2023-03-05T03:37:36.335Z,76.30
2023-03-05T03:40:05.695Z,76.30
2023-03-05T03:42:33.270Z,76.10
2023-03-05T03:45:02.208Z,76.00
2023-03-05T03:47:30.967Z,76.10
2023-03-05T03:49:58.974Z,76.10
2023-03-05T03:52:26.915Z,76.20
2023-03-05T03:54:55.653Z,76.40
2023-03-05T03:57:22.897Z,76.50
2023-03-05T03:59:50.920Z,76.50
2023-03-05T04:02:18.581Z,76.60
2023-03-05T04:04:45.905Z,76.60
2023-03-05T04:07:13.358Z,76.60
2023-03-05T04:09:40.585Z,76.80
2023-03-05T04:12:08.083Z,76.70
2023-03-05T04:14:35.638Z,76.60
2023-03-05T04:17:03.203Z,76.50
2023-03-05T04:19:30.688Z,76.50
2023-03-05T04:22:00.939Z,76.50
2023-03-05T04:24:28.155Z,76.50
2023-03-05T04:26:55.387Z,76.50
2023-03-05T04:29:22.557Z,76.50
2023-03-05T04:31:49.756Z,76.50
2023-03-05T04:34:16.954Z,76.50
2023-03-05T04:36:44.489Z,76.60
2023-03-05T04:39:11.843Z,76.80
2023-03-05T04:41:38.957Z,77.10
2023-03-05T04:44:06.254Z,77.10
2023-03-05T04:46:33.515Z,77.30
2023-03-05T04:49:00.750Z,77.50
2023-03-05T04:51:27.973Z,77.50
2023-03-05T04:53:55.130Z,77.60
2023-03-05T04:56:22.390Z,77.80
2023-03-05T04:58:49.760Z,78.70
2023-03-05T05:01:16.968Z,77.80
2023-03-05T05:03:44.195Z,77.70
2023-03-05T05:06:11.774Z,76.90
2023-03-05T05:08:39.012Z,77.60
2023-03-05T05:11:07.985Z,77.60
2023-03-05T05:13:35.340Z,77.60
2023-03-05T05:16:05.787Z,76.50
2023-03-05T05:18:32.976Z,77.20
2023-03-05T05:21:00.160Z,77.20
2023-03-05T05:23:27.700Z,77.20
2023-03-05T05:26:06.408Z,77.20
2023-03-05T05:28:35.224Z,77.40
2023-03-05T05:31:07.529Z,77.40
2023-03-05T05:33:34.904Z,77.40
2023-03-05T05:36:06.532Z,76.70
2023-03-05T05:38:34.095Z,77.50
2023-03-05T05:41:06.925Z,78.30
2023-03-05T05:43:34.594Z,77.30
2023-03-05T05:46:03.328Z,76.60
2023-03-05T05:48:32.291Z,77.30
2023-03-05T05:51:00.178Z,77.30
2023-03-05T05:53:27.385Z,77.20
2023-03-05T05:55:54.506Z,77.30
2023-03-05T05:58:21.804Z,77.30
2023-03-05T06:00:48.967Z,77.30
2023-03-05T06:03:16.161Z,77.30
2023-03-05T06:05:43.464Z,77.20
2023-03-05T06:08:11.001Z,77.30
2023-03-05T06:10:38.316Z,77.30
2023-03-05T06:13:05.509Z,77.40
2023-03-05T06:15:32.706Z,77.50
2023-03-05T06:18:00.942Z,77.50
2023-03-05T06:20:28.606Z,77.50
2023-03-05T06:22:55.962Z,77.40
2023-03-05T06:25:23.208Z,77.30
2023-03-05T06:27:50.407Z,77.10
2023-03-05T06:30:17.769Z,77.10
2023-03-05T06:32:45.019Z,77.30
2023-03-05T06:35:12.236Z,77.30
2023-03-05T06:37:39.525Z,77.50
2023-03-05T06:40:07.775Z,77.70
2023-03-05T06:42:35.162Z,77.80
2023-03-05T06:45:02.495Z,77.90
2023-03-05T06:47:29.707Z,77.80
2023-03-05T06:49:56.878Z,77.60
2023-03-05T06:52:24.119Z,77.40
2023-03-05T06:54:51.507Z,77.30
2023-03-05T06:57:18.727Z,77.30
2023-03-05T06:59:45.910Z,77.40
2023-03-05T07:02:14.136Z,77.30
2023-03-05T07:04:41.316Z,77.60
2023-03-05T07:07:08.462Z,77.60
2023-03-05T07:09:35.736Z,77.50
2023-03-05T07:12:02.977Z,77.30
2023-03-05T07:14:30.212Z,77.30
2023-03-05T07:16:57.453Z,77.40
2023-03-05T07:19:24.899Z,77.10
2023-03-05T07:21:52.178Z,77.20
2023-03-05T07:24:19.406Z,77.10
2023-03-05T07:26:48.873Z,76.90
2023-03-05T07:29:16.312Z,76.80
2023-03-05T07:31:43.516Z,76.40
2023-03-05T07:34:10.669Z,76.30
2023-03-05T07:36:38.186Z,76.30
2023-03-05T07:39:06.398Z,76.50
2023-03-05T07:41:33.937Z,76.60
2023-03-05T07:44:01.308Z,76.40
2023-03-05T07:46:31.710Z,76.20
2023-03-05T07:48:59.470Z,76.20
2023-03-05T07:51:27.465Z,75.80
2023-03-05T07:53:57.425Z,75.40
2023-03-05T07:56:32.437Z,74.80
2023-03-05T07:59:01.311Z,74.80
2023-03-05T08:01:32.603Z,74.90
2023-03-05T08:03:59.892Z,75.00
2023-03-05T08:06:27.430Z,75.00
2023-03-05T08:08:55.118Z,74.80
2023-03-05T08:11:22.356Z,74.90
2023-03-05T08:13:49.791Z,75.90
2023-03-05T08:16:20.172Z,74.70
2023-03-05T08:18:48.483Z,75.20
2023-03-05T08:21:21.240Z,74.80
2023-03-05T08:23:48.896Z,74.90
2023-03-05T08:26:19.861Z,74.10
2023-03-05T08:28:47.642Z,73.60
2023-03-05T08:31:16.858Z,73.10
2023-03-05T08:33:44.078Z,73.00
2023-03-05T08:36:11.444Z,73.10
2023-03-05T08:38:38.913Z,73.20
2023-03-05T08:41:06.495Z,73.60
2023-03-05T08:43:34.484Z,73.70
2023-03-05T08:46:02.483Z,72.00
2023-03-05T08:48:30.177Z,72.70
2023-03-05T08:50:58.060Z,71.90
2023-03-05T08:53:25.208Z,70.50
2023-03-05T08:55:57.878Z,70.40
2023-03-05T08:58:25.824Z,69.80
2023-03-05T09:00:53.091Z,69.30
2023-03-05T09:03:20.530Z,68.40
2023-03-05T09:05:47.861Z,67.40
2023-03-05T09:08:15.405Z,67.00
2023-03-05T09:10:43.329Z,67.40
2023-03-05T09:13:10.703Z,67.40
2023-03-05T09:15:38.966Z,67.00
2023-03-05T09:18:08.870Z,66.90
2023-03-05T09:20:37.227Z,66.30
2023-03-05T09:23:04.424Z,65.60
2023-03-05T09:25:31.602Z,61.60
2023-03-05T09:27:58.758Z,59.70
2023-03-05T09:30:26.056Z,57.80
2023-03-05T09:32:53.412Z,57.10
2023-03-05T09:35:20.647Z,55.40
2023-03-05T09:37:47.872Z,54.90
2023-03-05T09:40:19.419Z,52.10
2023-03-05T09:43:11.685Z,49.60
2023-03-05T09:45:58.649Z,50.20
2023-03-05T09:48:46.939Z,50.60
2023-03-05T09:51:22.419Z,50.40
2023-03-05T09:54:02.945Z,49.30
2023-03-05T09:56:35.755Z,47.40
2023-03-05T09:59:17.436Z,46.50
2023-03-05T10:01:45.351Z,47.20
2023-03-05T10:04:18.785Z,48.20
2023-03-05T10:06:52.152Z,48.40
2023-03-05T10:09:28.406Z,49.00
2023-03-05T10:12:27.698Z,46.70
2023-03-05T10:14:55.614Z,46.40
2023-03-05T10:17:50.720Z,44.80
2023-03-05T10:20:33.104Z,43.90
2023-03-05T10:23:24.731Z,44.10
2023-03-05T10:26:13.201Z,43.80
2023-03-05T10:29:31.054Z,44.70
2023-03-05T10:32:22.774Z,44.10
2023-03-05T10:35:11.074Z,42.30
2023-03-05T10:38:15.448Z,40.50
2023-03-05T10:40:55.181Z,40.90
2023-03-05T10:43:57.704Z,41.20
2023-03-05T10:46:35.228Z,41.20
2023-03-05T10:49:14.536Z,41.40
2023-03-05T10:51:50.412Z,40.10
2023-03-05T10:54:29.632Z,40.20
2023-03-05T10:57:18.230Z,42.40
2023-03-05T10:59:50.789Z,43.20
2023-03-05T11:02:19.930Z,44.10
2023-03-05T11:04:47.861Z,45.00
2023-03-05T11:07:15.038Z,45.70
2023-03-05T11:09:43.662Z,47.00
2023-03-05T11:12:13.825Z,48.00
2023-03-05T11:15:19.756Z,47.50
2023-03-05T11:18:03.262Z,47.10
2023-03-05T11:20:34.721Z,46.70
2023-03-05T11:23:20.437Z,46.80
2023-03-05T11:26:02.091Z,47.40
2023-03-05T11:28:41.311Z,47.50
2023-03-05T11:31:24.283Z,47.00
2023-03-05T11:33:58.164Z,47.40
2023-03-05T11:36:35.825Z,44.50
2023-03-05T11:39:06.061Z,40.30
2023-03-05T11:41:36.258Z,34.00
2023-03-05T11:44:11.219Z,32.50
2023-03-05T11:46:53.708Z,31.00
2023-03-05T11:49:27.488Z,30.50
2023-03-05T11:52:18.139Z,30.90
2023-03-05T11:54:57.328Z,30.00
2023-03-05T11:57:25.793Z,30.30
2023-03-05T11:59:57.932Z,32.70
2023-03-05T12:02:27.713Z,34.80
2023-03-05T12:04:55.995Z,36.10
2023-03-05T12:07:34.745Z,37.00
2023-03-05T12:10:02.591Z,38.10
2023-03-05T12:12:39.948Z,37.20
2023-03-05T12:15:19.103Z,37.50
2023-03-05T12:18:08.165Z,38.10
2023-03-05T12:21:05.835Z,38.60
2023-03-05T12:24:20.846Z,38.70
2023-03-05T12:26:57.023Z,39.00
2023-03-05T12:29:38.421Z,40.20
2023-03-05T12:32:25.787Z,41.80
2023-03-05T12:34:57.868Z,40.50
2023-03-05T12:37:25.063Z,40.50
2023-03-05T12:40:08.782Z,41.80
2023-03-05T12:42:38.914Z,39.70
2023-03-05T12:45:12.210Z,37.10
2023-03-05T12:47:40.610Z,36.90
2023-03-05T12:50:26.443Z,37.20
2023-03-05T12:52:54.408Z,37.40
2023-03-05T12:55:34.804Z,37.50
2023-03-05T12:58:16.361Z,38.10
2023-03-05T13:00:50.075Z,37.70
2023-03-05T13:03:21.040Z,37.40
2023-03-05T13:05:56.231Z,36.30
2023-03-05T13:08:26.603Z,35.90
2023-03-05T13:11:05.735Z,36.20
2023-03-05T13:13:41.216Z,36.10
2023-03-05T13:16:30.176Z,36.20
2023-03-05T13:19:01.342Z,36.00
2023-03-05T13:21:31.468Z,36.50
2023-03-05T13:24:01.812Z,36.90
2023-03-05T13:26:35.767Z,37.80
2023-03-05T13:29:17.466Z,38.50
2023-03-05T13:31:52.534Z,39.60
2023-03-05T13:34:32.043Z,40.20
2023-03-05T13:37:04.641Z,40.90
2023-03-05T13:39:47.400Z,41.50
2023-03-05T13:42:22.608Z,41.90
2023-03-05T13:45:02.338Z,42.00
2023-03-05T13:47:35.558Z,40.70
2023-03-05T13:50:06.386Z,40.90
2023-03-05T13:52:36.691Z,41.20
2023-03-05T13:55:12.168Z,41.50
2023-03-05T13:57:41.208Z,41.50
2023-03-05T14:00:28.207Z,41.50
2023-03-05T14:02:59.679Z,41.70
2023-03-05T14:05:28.261Z,42.10
2023-03-05T14:07:56.607Z,42.90
2023-03-05T14:10:36.607Z,42.30
2023-03-05T14:13:11.654Z,42.60
2023-03-05T14:15:39.650Z,42.50
2023-03-05T14:18:12.904Z,43.20
2023-03-05T14:21:01.669Z,43.20
2023-03-05T14:23:43.122Z,41.30
2023-03-05T14:26:29.497Z,38.90
2023-03-05T14:28:58.878Z,36.80
2023-03-05T14:31:27.956Z,34.60
2023-03-05T14:34:02.784Z,31.90
2023-03-05T14:36:30.917Z,31.40
2023-03-05T14:38:59.767Z,31.00
2023-03-05T14:41:32.571Z,30.90
2023-03-05T14:43:59.813Z,31.10
2023-03-05T14:46:27.360Z,29.60
2023-03-05T14:48:54.640Z,30.20
2023-03-05T14:51:21.905Z,31.00
2023-03-05T14:53:52.408Z,31.70
2023-03-05T14:56:25.480Z,31.20
2023-03-05T14:58:53.502Z,33.00
2023-03-05T15:01:20.873Z,33.70
2023-03-05T15:03:48.297Z,34.20
2023-03-05T15:06:27.226Z,34.50
2023-03-05T15:08:54.491Z,34.80
2023-03-05T15:11:22.673Z,35.80
2023-03-05T15:13:50.134Z,37.00
2023-03-05T15:16:18.994Z,38.50
2023-03-05T15:18:46.235Z,39.50
2023-03-05T15:21:13.568Z,38.60
2023-03-05T15:23:40.935Z,36.00
2023-03-05T15:26:09.737Z,34.00
2023-03-05T15:28:38.662Z,34.80
2023-03-05T15:31:06.451Z,35.90
2023-03-05T15:33:34.023Z,36.10
2023-03-05T15:36:01.382Z,34.90
2023-03-05T15:38:28.582Z,35.70
2023-03-05T15:40:56.014Z,34.30
2023-03-05T15:43:23.410Z,34.40
2023-03-05T15:45:50.543Z,35.70
2023-03-05T15:48:17.763Z,36.50
2023-03-05T15:50:45.405Z,37.60
2023-03-05T15:53:16.078Z,39.00
2023-03-05T15:55:44.284Z,40.10
2023-03-05T15:58:15.758Z,41.00
2023-03-05T16:00:43.174Z,41.50
2023-03-05T16:03:10.798Z,41.60
2023-03-05T16:05:41.139Z,42.30
2023-03-05T16:08:09.102Z,43.00
2023-03-05T16:10:38.481Z,43.60
2023-03-05T16:13:13.301Z,43.80
2023-03-05T16:15:41.652Z,44.30
2023-03-05T16:18:14.257Z,44.40
2023-03-05T16:20:41.809Z,44.50
2023-03-05T16:23:09.062Z,44.80
2023-03-05T16:25:37.271Z,44.90
2023-03-05T16:28:04.737Z,45.00
2023-03-05T16:30:33.077Z,45.30
2023-03-05T16:33:00.322Z,45.50
2023-03-05T16:35:27.561Z,45.60
2023-03-05T16:37:54.919Z,45.80
2023-03-05T16:40:22.220Z,45.80
2023-03-05T16:42:49.476Z,46.20
2023-03-05T16:45:16.887Z,47.20
2023-03-05T16:47:44.127Z,47.80
2023-03-05T16:50:12.198Z,48.50
2023-03-05T16:52:39.505Z,49.00
2023-03-05T16:55:06.966Z,49.60
2023-03-05T16:57:34.467Z,49.80
2023-03-05T17:00:03.994Z,49.90
2023-03-05T17:02:31.236Z,49.80
2023-03-05T17:04:58.506Z,50.00
2023-03-05T17:07:26.474Z,50.50
2023-03-05T17:09:54.353Z,51.00
2023-03-05T17:12:23.668Z,51.80
2023-03-05T17:14:50.870Z,52.30
2023-03-05T17:17:18.218Z,52.90
2023-03-05T17:19:45.364Z,53.40
2023-03-05T17:22:12.900Z,53.80
2023-03-05T17:24:42.665Z,54.40
2023-03-05T17:27:10.783Z,54.60
2023-03-05T17:29:38.016Z,55.00
2023-03-05T17:32:05.861Z,55.60
2023-03-05T17:34:36.272Z,56.00
2023-03-05T17:37:05.248Z,56.40
2023-03-05T17:39:32.801Z,57.30
2023-03-05T17:42:00.626Z,57.60
2023-03-05T17:44:27.795Z,57.60
2023-03-05T17:46:55.107Z,57.50
2023-03-05T17:49:22.371Z,57.50
2023-03-05T17:51:49.612Z,57.60
2023-03-05T17:54:16.811Z,57.70
2023-03-05T17:56:44.046Z,57.80
2023-03-05T17:59:11.287Z,57.80
2023-03-05T18:01:38.524Z,57.70
2023-03-05T18:04:05.795Z,57.80
2023-03-05T18:06:33.036Z,58.00
2023-03-05T18:09:00.205Z,58.40
2023-03-05T18:11:28.799Z,59.00
2023-03-05T18:13:56.146Z,59.50
2023-03-05T18:16:25.081Z,60.00
2023-03-05T18:18:52.603Z,60.20
2023-03-05T18:21:22.199Z,60.50
2023-03-05T18:23:50.966Z,60.80
2023-03-05T18:26:18.390Z,61.00
2023-03-05T18:28:45.604Z,61.10
2023-03-05T18:31:13.029Z,61.00
2023-03-05T18:33:40.975Z,61.00
2023-03-05T18:36:10.697Z,60.30
2023-03-05T18:38:38.441Z,61.00
2023-03-05T18:41:06.407Z,60.80
2023-03-05T18:43:33.939Z,60.80
2023-03-05T18:46:04.855Z,60.80
2023-03-05T18:48:32.230Z,60.70
2023-03-05T18:51:01.242Z,60.80
2023-03-05T18:53:29.391Z,61.00
2023-03-05T18:55:56.551Z,61.00
2023-03-05T18:58:25.906Z,61.30
2023-03-05T19:00:53.314Z,61.50
2023-03-05T19:03:22.806Z,61.70
2023-03-05T19:05:51.140Z,61.90
2023-03-05T19:08:18.938Z,62.10
2023-03-05T19:10:46.654Z,62.10
2023-03-05T19:13:34.706Z,62.30
2023-03-05T19:16:30.269Z,61.90
2023-03-05T19:19:07.439Z,62.80
2023-03-05T19:21:36.123Z,63.30
2023-03-05T19:24:03.493Z,64.00
2023-03-05T19:26:30.761Z,64.10
2023-03-05T19:28:57.916Z,64.10
2023-03-05T19:31:25.201Z,64.00
2023-03-05T19:33:53.703Z,64.10
2023-03-05T19:36:21.100Z,64.10
2023-03-05T19:38:49.618Z,64.00
2023-03-05T19:41:17.947Z,64.10
2023-03-05T19:43:45.177Z,64.10
2023-03-05T19:46:12.417Z,64.30
2023-03-05T19:48:41.020Z,64.60
2023-03-05T19:51:17.480Z,64.80
2023-03-05T19:53:45.634Z,65.10
2023-03-05T19:56:15.616Z,64.90
2023-03-05T19:58:46.233Z,65.60
2023-03-05T20:01:19.318Z,66.00
2023-03-05T20:03:49.175Z,66.00
2023-03-05T20:06:16.870Z,66.10
2023-03-05T20:08:44.617Z,66.30
2023-03-05T20:11:13.240Z,66.60
2023-03-05T20:13:41.263Z,66.70
2023-03-05T20:16:16.008Z,66.80
2023-03-05T20:18:43.998Z,68.20
2023-03-05T20:21:11.245Z,67.60
2023-03-05T20:23:38.535Z,67.90
2023-03-05T20:26:06.691Z,67.70
2023-03-05T20:28:34.604Z,67.60
2023-03-05T20:31:02.229Z,67.80
2023-03-05T20:33:29.922Z,67.70
2023-03-05T20:35:57.374Z,67.80
2023-03-05T20:38:29.300Z,68.20
2023-03-05T20:41:00.619Z,68.30
2023-03-05T20:43:30.482Z,68.30
2023-03-05T20:45:58.740Z,68.40
2023-03-05T20:48:27.777Z,68.60
2023-03-05T20:50:55.542Z,68.60
2023-03-05T20:53:23.722Z,68.90
2023-03-05T20:55:50.919Z,69.10
2023-03-05T20:58:18.137Z,69.40
2023-03-05T21:00:45.609Z,69.60
2023-03-05T21:03:12.884Z,69.80
2023-03-05T21:05:40.157Z,70.00
2023-03-05T21:08:07.509Z,70.20
2023-03-05T21:10:34.720Z,70.30
2023-03-05T21:13:01.952Z,70.20
2023-03-05T21:15:30.679Z,70.10
2023-03-05T21:17:58.216Z,70.00
2023-03-05T21:20:28.928Z,71.00
2023-03-05T21:22:56.787Z,69.90
2023-03-05T21:25:34.660Z,69.90
2023-03-05T21:28:07.848Z,70.00
2023-03-05T21:30:43.630Z,70.20
2023-03-05T21:33:17.765Z,70.30
2023-03-05T21:35:45.428Z,70.40
2023-03-05T21:38:14.018Z,70.50
2023-03-05T21:40:45.371Z,70.70
2023-03-05T21:43:13.306Z,71.00
2023-03-05T21:45:41.626Z,70.80
2023-03-05T21:48:09.356Z,70.60
2023-03-05T21:50:39.693Z,70.50
2023-03-05T21:53:07.970Z,70.40
2023-03-05T21:55:45.039Z,71.40
2023-03-05T21:58:12.832Z,70.60
2023-03-05T22:00:39.964Z,70.60
2023-03-05T22:03:07.190Z,70.80
2023-03-05T22:05:34.361Z,70.90
2023-03-05T22:08:01.573Z,70.80
2023-03-05T22:10:28.895Z,70.90
2023-03-05T22:13:11.987Z,70.80
2023-03-05T22:15:49.005Z,70.70
2023-03-05T22:18:23.106Z,70.70
2023-03-05T22:20:51.203Z,70.80
2023-03-05T22:23:19.730Z,70.90
2023-03-05T22:25:58.930Z,70.90
2023-03-05T22:28:27.606Z,71.90
2023-03-05T22:30:55.411Z,70.80
2023-03-05T22:33:23.298Z,70.80
2023-03-05T22:35:50.903Z,70.70
2023-03-05T22:38:18.774Z,70.90
2023-03-05T22:40:47.957Z,70.90
2023-03-05T22:43:16.271Z,71.20
2023-03-05T22:45:43.616Z,71.40
2023-03-05T22:48:11.545Z,71.40
2023-03-05T22:50:40.200Z,71.40
2023-03-05T22:53:08.191Z,71.30
2023-03-05T22:55:39.100Z,71.40
2023-03-05T22:58:06.295Z,71.30
2023-03-05T23:00:33.558Z,71.40
2023-03-05T23:03:01.200Z,71.30
2023-03-05T23:05:28.528Z,71.40
2023-03-05T23:07:55.726Z,71.50
2023-03-05T23:10:27.046Z,71.30
2023-03-05T23:12:56.941Z,71.50
2023-03-05T23:15:27.464Z,71.30
2023-03-05T23:17:54.820Z,71.30
2023-03-05T23:20:24.645Z,71.30
2023-03-05T23:22:53.502Z,71.30
2023-03-05T23:25:20.850Z,71.40
2023-03-05T23:27:48.402Z,71.60
2023-03-05T23:30:24.569Z,71.80
2023-03-05T23:33:02.247Z,72.00
2023-03-05T23:35:40.791Z,72.20
2023-03-05T23:38:17.191Z,72.40
2023-03-05T23:40:49.977Z,72.50
2023-03-05T23:43:18.517Z,72.70
2023-03-05T23:45:48.066Z,73.00
2023-03-05T23:48:16.475Z,72.80
2023-03-05T23:50:45.683Z,72.80
2023-03-05T23:53:20.778Z,72.60
2023-03-05T23:55:49.064Z,72.80
2023-03-05T23:58:18.855Z,72.70
